Time;durP1;ratioP1;P1;durP2;ratioP2;P2;SDS_P1;SDS_P2;PMS_P1;PMS_P2;Temp;Humidity;BMP_temperature;BMP_pressure;BME280_temperature;BME280_humidity;BME280_pressure;Samples;Min_cycle;Max_cycle;Signal;HPM_P1;HPM_P2
2023/08/19 00:01:06;;;;;;;6.97;4.47;;;21.60;99.90;;;;;;5005972;28;20686;-31
2023/08/19 00:03:32;;;;;;;8.98;4.32;;;21.60;99.90;;;;;;5006429;28;20175;-30
2023/08/19 00:06:10;;;;;;;5.70;4.68;;;21.60;99.90;;;;;;4977926;28;20270;-31
2023/08/19 00:08:37;;;;;;;5.70;4.28;;;21.40;99.90;;;;;;5003523;28;20294;-31
2023/08/19 00:11:03;;;;;;;10.73;4.68;;;21.40;99.90;;;;;;4987655;28;20220;-31
2023/08/19 00:13:30;;;;;;;6.47;4.63;;;21.30;99.90;;;;;;4999937;28;20212;-31
2023/08/19 00:15:56;;;;;;;8.23;5.07;;;21.30;99.90;;;;;;4990929;28;20188;-30
2023/08/19 00:18:22;;;;;;;7.55;5.13;;;21.20;99.90;;;;;;4996552;28;20242;-31
2023/08/19 00:20:50;;;;;;;6.53;4.47;;;21.10;99.90;;;;;;5003556;28;20188;-30
2023/08/19 00:23:16;;;;;;;8.63;4.63;;;21.10;99.90;;;;;;4991111;28;20179;-30
2023/08/19 00:25:43;;;;;;;6.93;3.80;;;20.90;99.90;;;;;;5002182;28;20207;-31
2023/08/19 00:28:09;;;;;;;8.82;4.63;;;20.90;99.90;;;;;;4969073;28;20235;-30
2023/08/19 00:30:35;;;;;;;7.28;4.90;;;20.90;99.90;;;;;;4992831;28;20214;-31
2023/08/19 00:33:01;;;;;;;7.00;5.03;;;20.80;99.90;;;;;;4986514;28;20211;-30
2023/08/19 00:35:28;;;;;;;8.68;3.90;;;20.70;99.90;;;;;;4977675;28;20179;-30
2023/08/19 00:37:54;;;;;;;9.23;4.20;;;20.70;99.90;;;;;;4987575;28;20214;-30
2023/08/19 00:40:21;;;;;;;8.55;4.63;;;20.70;99.90;;;;;;5005232;28;20291;-30
2023/08/19 00:42:47;;;;;;;9.63;4.90;;;20.70;99.90;;;;;;4971063;28;20270;-30
2023/08/19 00:45:13;;;;;;;5.47;4.30;;;20.60;99.90;;;;;;4989798;28;20226;-30
2023/08/19 00:47:40;;;;;;;7.63;4.70;;;20.60;99.90;;;;;;4972691;28;20212;-30
2023/08/19 00:50:09;;;;;;;6.07;4.93;;;20.60;99.90;;;;;;5001236;28;20264;-30
2023/08/19 00:52:37;;;;;;;6.70;4.90;;;20.60;99.90;;;;;;4990128;28;20175;-30
2023/08/19 00:55:05;;;;;;;8.73;5.30;;;20.60;99.90;;;;;;4988234;28;20202;-30
2023/08/19 00:57:35;;;;;;;6.15;4.43;;;20.50;99.90;;;;;;4975356;28;20245;-30
2023/08/19 01:00:01;;;;;;;9.35;5.30;;;20.50;99.90;;;;;;4993214;28;20272;-30
2023/08/19 01:02:28;;;;;;;6.50;5.20;;;20.50;99.90;;;;;;4993935;28;20184;-30
2023/08/19 01:04:54;;;;;;;6.28;4.95;;;20.50;99.90;;;;;;5001003;28;20211;-30
2023/08/19 01:07:45;;;;;;;9.18;5.22;;;20.30;99.90;;;;;;4976462;28;20290;-30
2023/08/19 01:10:35;;;;;;;9.48;4.97;;;20.20;99.90;;;;;;4991737;28;20176;-30
2023/08/19 01:13:19;;;;;;;7.10;5.30;;;20.20;99.90;;;;;;4988939;28;20207;-30
2023/08/19 01:16:08;;;;;;;8.07;4.93;;;20.20;99.90;;;;;;4973220;28;20219;-30
2023/08/19 01:18:37;;;;;;;9.93;4.80;;;20.20;99.90;;;;;;4975224;28;20222;-30
2023/08/19 01:21:04;;;;;;;6.45;4.68;;;20.20;99.90;;;;;;4998489;28;20207;-31
2023/08/19 01:23:33;;;;;;;11.00;5.00;;;20.20;99.90;;;;;;4983785;28;20197;-30
2023/08/19 01:25:59;;;;;;;8.18;5.18;;;20.30;99.90;;;;;;5006485;28;20196;-30
2023/08/19 01:28:25;;;;;;;4.82;3.80;;;20.30;99.90;;;;;;4975349;28;20199;-29
2023/08/19 01:30:51;;;;;;;4.13;3.63;;;20.30;99.90;;;;;;4980342;28;20187;-30
2023/08/19 01:33:18;;;;;;;6.05;4.22;;;20.20;99.90;;;;;;4982129;28;20183;-30
2023/08/19 01:36:01;;;;;;;6.47;4.05;;;20.10;99.90;;;;;;4976039;28;20199;-31
2023/08/19 01:38:57;;;;;;;8.18;4.75;;;20.10;99.90;;;;;;5000912;28;20207;-31
2023/08/19 01:41:26;;;;;;;5.95;3.95;;;20.10;99.90;;;;;;4992005;28;20185;-30
2023/08/19 01:43:59;;;;;;;5.88;4.40;;;20.00;99.90;;;;;;5005928;28;20196;-30
2023/08/19 01:46:26;;;;;;;5.13;4.05;;;20.00;99.90;;;;;;4990748;28;20222;-30
2023/08/19 01:48:52;;;;;;;6.95;4.68;;;20.00;99.90;;;;;;4980867;28;20207;-30
2023/08/19 01:51:18;;;;;;;7.47;4.60;;;20.00;99.90;;;;;;4990342;28;20192;-30
2023/08/19 01:53:44;;;;;;;7.57;4.68;;;20.00;99.90;;;;;;5008789;28;20207;-30
2023/08/19 01:56:13;;;;;;;6.28;4.30;;;20.00;99.90;;;;;;4979855;28;20215;-30
2023/08/19 01:58:39;;;;;;;5.72;3.95;;;19.90;99.90;;;;;;5005759;28;20211;-30
2023/08/19 02:01:09;;;;;;;6.63;3.75;;;19.90;99.90;;;;;;4991000;28;20274;-30
2023/08/19 02:03:35;;;;;;;4.88;4.00;;;19.90;99.90;;;;;;5007476;28;20667;-30
2023/08/19 02:06:01;;;;;;;6.57;3.72;;;19.90;99.90;;;;;;4985922;28;20180;-30
2023/08/19 02:08:27;;;;;;;4.97;3.80;;;20.00;99.90;;;;;;5006890;28;20207;-30
2023/08/19 02:10:53;;;;;;;6.55;4.25;;;19.90;99.90;;;;;;5007477;28;20184;-30
2023/08/19 02:13:18;;;;;;;7.32;3.83;;;19.90;99.90;;;;;;5006518;28;20379;-30
2023/08/19 02:15:44;;;;;;;4.95;4.22;;;19.90;99.90;;;;;;4999037;28;20254;-30
2023/08/19 02:18:10;;;;;;;5.72;3.83;;;19.80;99.90;;;;;;4977767;28;20219;-30
2023/08/19 02:20:36;;;;;;;6.93;4.43;;;19.80;99.90;;;;;;5007232;28;20203;-30
2023/08/19 02:23:02;;;;;;;4.47;3.90;;;19.70;99.90;;;;;;4990614;28;20221;-29
2023/08/19 02:25:28;;;;;;;8.18;4.90;;;19.60;99.90;;;;;;5007102;28;20274;-30
2023/08/19 02:27:56;;;;;;;6.90;4.80;;;19.60;99.90;;;;;;4990296;28;20258;-29
2023/08/19 02:30:22;;;;;;;8.13;5.07;;;19.60;99.90;;;;;;5005697;28;20172;-30
2023/08/19 02:32:48;;;;;;;5.53;4.15;;;19.50;99.90;;;;;;4982187;28;20176;-29
2023/08/19 02:35:14;;;;;;;6.57;4.63;;;19.50;99.90;;;;;;4990767;28;20175;-31
2023/08/19 02:37:39;;;;;;;7.15;4.85;;;19.50;99.90;;;;;;4982292;28;20279;-29
2023/08/19 02:40:06;;;;;;;9.23;5.38;;;19.50;99.90;;;;;;5006263;28;20176;-30
2023/08/19 02:42:32;;;;;;;12.60;5.20;;;19.50;99.90;;;;;;5006092;28;20187;-31
2023/08/19 02:44:59;;;;;;;11.05;5.43;;;19.50;99.90;;;;;;4986722;28;20281;-30
2023/08/19 02:47:25;;;;;;;6.88;5.15;;;19.50;99.90;;;;;;4988589;28;20218;-29
2023/08/19 02:49:51;;;;;;;7.18;5.60;;;19.50;99.90;;;;;;5005628;28;20243;-30
2023/08/19 02:52:18;;;;;;;6.68;5.50;;;19.40;99.90;;;;;;4981350;28;20176;-30
2023/08/19 02:54:45;;;;;;;9.13;5.55;;;19.50;99.90;;;;;;4974802;28;20263;-30
2023/08/19 02:57:10;;;;;;;8.77;5.28;;;19.40;99.90;;;;;;4989471;28;20226;-30
2023/08/19 02:59:36;;;;;;;7.65;5.53;;;19.40;99.90;;;;;;4979938;28;20179;-30
2023/08/19 03:02:02;;;;;;;6.20;4.88;;;19.40;99.90;;;;;;5006060;28;20188;-30
2023/08/19 03:04:28;;;;;;;9.07;5.28;;;19.40;99.90;;;;;;5005070;28;20180;-30
2023/08/19 03:06:54;;;;;;;8.25;5.30;;;19.40;99.90;;;;;;5004585;28;20232;-30
2023/08/19 03:09:20;;;;;;;7.90;5.60;;;19.40;99.90;;;;;;5006185;28;20208;-30
2023/08/19 03:11:45;;;;;;;9.27;5.03;;;19.30;99.90;;;;;;5006380;28;20180;-30
2023/08/19 03:14:11;;;;;;;6.97;4.97;;;19.20;99.90;;;;;;5003747;28;20186;-30
2023/08/19 03:16:37;;;;;;;6.80;5.15;;;19.20;99.90;;;;;;5003474;28;20180;-30
2023/08/19 03:19:03;;;;;;;8.00;5.40;;;19.10;99.90;;;;;;4990428;28;20202;-30
2023/08/19 03:21:29;;;;;;;8.27;4.90;;;19.10;99.90;;;;;;5004094;28;20184;-29
2023/08/19 03:23:54;;;;;;;7.03;4.85;;;19.10;99.90;;;;;;5004576;28;20188;-29
2023/08/19 03:26:22;;;;;;;6.88;4.80;;;19.10;99.90;;;;;;5002622;28;20189;-30
2023/08/19 03:28:48;;;;;;;5.65;5.07;;;19.10;99.90;;;;;;4979593;28;20217;-30
2023/08/19 03:31:14;;;;;;;6.80;5.20;;;19.10;99.90;;;;;;5003711;28;20176;-30
2023/08/19 03:33:42;;;;;;;8.43;4.50;;;19.10;99.90;;;;;;4995370;28;20175;-30
2023/08/19 03:36:08;;;;;;;6.43;5.03;;;19.10;99.90;;;;;;4988170;28;20185;-28
2023/08/19 03:38:35;;;;;;;6.82;4.95;;;19.10;99.90;;;;;;4995651;28;20323;-29
2023/08/19 03:41:01;;;;;;;7.50;5.00;;;19.00;99.90;;;;;;5003812;28;20189;-29
2023/08/19 03:43:27;;;;;;;10.50;5.40;;;18.90;99.90;;;;;;4996760;28;20191;-29
2023/08/19 03:45:53;;;;;;;7.68;5.32;;;18.90;99.90;;;;;;5005024;28;20175;-30
2023/08/19 03:48:19;;;;;;;7.25;5.28;;;18.90;99.90;;;;;;4976982;28;20242;-29
2023/08/19 03:50:44;;;;;;;5.82;4.78;;;18.90;99.90;;;;;;5004954;28;20206;-29
2023/08/19 03:53:10;;;;;;;7.60;5.47;;;18.90;99.90;;;;;;5006154;28;20210;-29
2023/08/19 03:55:36;;;;;;;7.80;5.38;;;18.90;99.90;;;;;;4981909;28;20176;-31
2023/08/19 03:58:02;;;;;;;6.97;5.10;;;18.90;99.90;;;;;;4976763;28;20242;-30
2023/08/19 04:00:28;;;;;;;10.10;5.00;;;18.80;99.90;;;;;;4975729;28;20179;-29
2023/08/19 04:02:54;;;;;;;11.48;5.57;;;18.80;99.90;;;;;;4981587;28;20202;-30
2023/08/19 04:05:20;;;;;;;11.52;5.10;;;18.80;99.90;;;;;;4987950;28;20191;-30
2023/08/19 04:07:46;;;;;;;7.38;5.20;;;18.70;99.90;;;;;;4982541;28;20226;-31
2023/08/19 04:10:12;;;;;;;5.93;5.03;;;18.70;99.90;;;;;;4977940;28;20175;-30
2023/08/19 04:12:38;;;;;;;9.07;4.72;;;18.70;99.90;;;;;;5004961;28;20180;-29
2023/08/19 04:15:04;;;;;;;7.25;5.15;;;18.70;99.90;;;;;;5004074;28;20208;-29
2023/08/19 04:17:34;;;;;;;6.65;4.47;;;18.70;99.90;;;;;;5003629;28;20315;-31
2023/08/19 04:20:00;;;;;;;8.18;4.85;;;18.70;99.90;;;;;;4990907;28;20179;-30
2023/08/19 04:22:26;;;;;;;7.95;4.70;;;18.70;99.90;;;;;;4991031;28;20179;-30
2023/08/19 04:24:55;;;;;;;8.23;5.25;;;18.70;99.90;;;;;;4983098;28;20206;-30
2023/08/19 04:27:22;;;;;;;8.40;5.45;;;18.60;99.90;;;;;;4979731;28;20278;-31
2023/08/19 04:29:48;;;;;;;6.35;5.30;;;18.60;99.90;;;;;;4987897;28;20278;-30
2023/08/19 04:32:16;;;;;;;8.50;5.60;;;18.60;99.90;;;;;;4990150;28;20235;-31
2023/08/19 04:34:42;;;;;;;8.40;6.28;;;18.70;99.90;;;;;;5004685;28;20189;-30
2023/08/19 04:37:08;;;;;;;8.05;5.47;;;18.70;99.90;;;;;;4987417;28;20222;-30
2023/08/19 04:39:36;;;;;;;7.35;5.65;;;18.70;99.90;;;;;;4971652;28;20243;-30
2023/08/19 04:42:09;;;;;;;6.07;4.45;;;18.70;99.90;;;;;;5004328;28;20184;-31
2023/08/19 04:44:35;;;;;;;7.18;5.18;;;18.60;99.90;;;;;;4979378;28;20179;-30
2023/08/19 04:47:01;;;;;;;6.22;4.65;;;18.50;99.90;;;;;;4976887;28;20214;-30
2023/08/19 04:49:28;;;;;;;6.50;4.75;;;18.50;99.90;;;;;;4975073;28;20199;-30
2023/08/19 04:51:56;;;;;;;9.30;5.07;;;18.50;99.90;;;;;;5008483;28;20205;-30
2023/08/19 04:54:25;;;;;;;6.13;4.53;;;18.40;99.90;;;;;;4978456;28;20196;-30
2023/08/19 04:56:52;;;;;;;7.65;5.70;;;18.40;99.90;;;;;;5008645;28;20234;-31
2023/08/19 04:59:17;;;;;;;8.23;6.00;;;18.40;99.90;;;;;;4979182;28;20211;-30
2023/08/19 05:01:44;;;;;;;9.15;5.72;;;18.50;99.90;;;;;;5005546;28;20300;-30
2023/08/19 05:04:14;;;;;;;8.95;5.68;;;18.60;99.90;;;;;;4988965;28;20247;-31
2023/08/19 05:06:42;;;;;;;6.18;5.57;;;18.60;99.90;;;;;;5005299;28;20319;-30
2023/08/19 05:09:08;;;;;;;6.25;4.93;;;18.70;99.90;;;;;;5005215;28;20295;-30
2023/08/19 05:11:35;;;;;;;12.05;5.25;;;18.80;99.90;;;;;;4984717;28;20270;-30
2023/08/19 05:14:04;;;;;;;7.60;4.97;;;18.80;99.90;;;;;;5007974;28;20187;-30
2023/08/19 05:16:33;;;;;;;5.90;5.18;;;18.90;99.90;;;;;;5007761;28;20272;-31
2023/08/19 05:19:31;;;;;;;9.73;5.50;;;18.90;99.90;;;;;;5004859;28;20192;-31
2023/08/19 05:22:05;;;;;;;8.65;5.40;;;18.90;99.90;;;;;;4988995;28;20193;-30
2023/08/19 05:24:32;;;;;;;7.93;5.03;;;19.00;99.90;;;;;;4990153;28;20187;-31
2023/08/19 05:27:04;;;;;;;6.80;5.13;;;19.00;99.90;;;;;;4981590;28;20212;-31
2023/08/19 05:29:37;;;;;;;7.85;5.03;;;19.10;99.90;;;;;;4991982;28;20215;-30
2023/08/19 05:32:09;;;;;;;7.90;5.07;;;19.20;99.90;;;;;;4998177;28;20179;-31
2023/08/19 05:34:35;;;;;;;8.05;5.07;;;19.20;99.90;;;;;;4982051;28;20191;-31
2023/08/19 05:37:06;;;;;;;9.95;6.93;;;19.30;99.90;;;;;;4992314;28;20227;-30
2023/08/19 05:39:32;;;;;;;9.63;6.13;;;19.30;99.90;;;;;;5007751;28;20199;-31
2023/08/19 05:41:58;;;;;;;8.77;6.60;;;19.40;99.90;;;;;;5007876;28;20280;-31
2023/08/19 05:44:26;;;;;;;10.80;5.30;;;19.50;99.90;;;;;;4984035;28;20235;-30
2023/08/19 05:46:54;;;;;;;8.50;5.68;;;19.60;99.90;;;;;;4984552;28;20298;-30
2023/08/19 05:49:21;;;;;;;5.97;5.18;;;19.70;99.90;;;;;;5007832;28;20218;-31
2023/08/19 05:51:50;;;;;;;7.47;5.85;;;19.80;99.90;;;;;;5009300;28;20184;-30
2023/08/19 05:54:21;;;;;;;8.07;5.40;;;19.90;99.90;;;;;;4992047;28;20179;-31
2023/08/19 05:56:50;;;;;;;8.93;5.60;;;20.00;99.90;;;;;;4997961;28;20259;-30
2023/08/19 05:59:20;;;;;;;7.75;5.88;;;20.10;99.90;;;;;;4999951;28;20204;-30
2023/08/19 06:01:48;;;;;;;10.60;5.55;;;20.20;99.90;;;;;;5008372;28;20256;-30
2023/08/19 06:04:15;;;;;;;7.50;5.85;;;20.30;99.90;;;;;;5008817;28;20175;-30
2023/08/19 06:06:42;;;;;;;11.52;5.70;;;20.40;99.90;;;;;;4999337;28;20187;-30
2023/08/19 06:09:10;;;;;;;6.40;5.55;;;20.50;99.90;;;;;;5008709;28;20713;-31
2023/08/19 06:12:11;;;;;;;9.30;5.78;;;20.60;99.90;;;;;;4998787;28;20203;-30
2023/08/19 06:14:48;;;;;;;9.68;5.95;;;20.80;99.90;;;;;;5001215;28;20270;-30
2023/08/19 06:17:14;;;;;;;8.20;5.95;;;20.90;99.90;;;;;;4992989;28;20310;-30
2023/08/19 06:19:41;;;;;;;7.75;5.18;;;21.00;99.90;;;;;;4983789;28;20222;-30
2023/08/19 06:22:07;;;;;;;7.60;5.47;;;21.10;99.90;;;;;;5008703;28;20187;-31
2023/08/19 06:24:33;;;;;;;8.00;5.70;;;21.20;99.90;;;;;;5006128;28;20203;-30
2023/08/19 06:26:59;;;;;;;5.82;5.25;;;21.30;99.90;;;;;;5008651;28;20265;-30
2023/08/19 06:29:25;;;;;;;7.53;5.30;;;21.40;99.90;;;;;;4992343;28;20207;-30
2023/08/19 06:31:51;;;;;;;8.57;5.40;;;21.50;99.90;;;;;;5008719;28;20255;-31
2023/08/19 06:34:17;;;;;;;7.13;5.65;;;21.60;99.90;;;;;;5005716;28;20249;-30
2023/08/19 06:36:46;;;;;;;9.70;5.70;;;21.70;99.90;;;;;;4998368;28;20190;-31
2023/08/19 06:39:28;;;;;;;9.63;5.13;;;21.70;99.90;;;;;;4981681;28;20187;-31
2023/08/19 06:42:05;;;;;;;7.22;5.00;;;21.80;99.90;;;;;;4990995;28;20359;-31
2023/08/19 06:44:33;;;;;;;6.75;5.30;;;21.80;99.90;;;;;;5001705;28;20258;-30
2023/08/19 06:47:02;;;;;;;8.50;5.53;;;21.90;99.90;;;;;;4993110;28;20207;-30
2023/08/19 06:49:28;;;;;;;6.97;4.80;;;22.00;99.90;;;;;;4972034;28;20216;-30
2023/08/19 06:51:54;;;;;;;8.50;5.07;;;22.10;99.90;;;;;;4990459;28;20184;-31
2023/08/19 06:54:20;;;;;;;6.53;5.00;;;22.20;99.90;;;;;;4989602;28;20243;-31
2023/08/19 06:57:09;;;;;;;7.13;5.45;;;22.40;99.90;;;;;;4971256;28;20219;-30
2023/08/19 06:59:39;;;;;;;7.53;5.13;;;22.50;99.90;;;;;;5007570;28;20235;-30
2023/08/19 07:02:07;;;;;;;6.97;5.35;;;22.50;99.90;;;;;;4997952;28;20179;-31
2023/08/19 07:04:35;;;;;;;8.45;5.53;;;22.70;99.90;;;;;;4981838;28;20204;-31
2023/08/19 07:07:10;;;;;;;5.63;5.10;;;22.80;99.90;;;;;;5005400;28;20211;-31
2023/08/19 07:09:42;;;;;;;9.30;5.20;;;22.90;99.90;;;;;;4986110;28;20295;-31
2023/08/19 07:12:16;;;;;;;5.50;4.55;;;23.00;99.90;;;;;;4995815;28;20179;-31
2023/08/19 07:14:47;;;;;;;10.27;5.13;;;23.20;99.90;;;;;;4986135;28;20180;-31
2023/08/19 07:17:22;;;;;;;6.60;5.05;;;23.30;99.90;;;;;;4995258;28;20214;-31
2023/08/19 07:19:54;;;;;;;8.65;4.97;;;23.40;99.90;;;;;;4997845;28;20211;-31
2023/08/19 07:22:44;;;;;;;8.45;4.55;;;23.60;99.90;;;;;;5000040;28;20786;-31
2023/08/19 07:25:11;;;;;;;6.45;4.70;;;23.70;99.90;;;;;;5006636;28;20180;-31
2023/08/19 07:27:37;;;;;;;6.65;5.20;;;23.80;99.90;;;;;;4977752;28;20201;-31
2023/08/19 07:30:04;;;;;;;10.20;4.90;;;23.90;99.90;;;;;;4991238;28;20213;-31
2023/08/19 07:32:34;;;;;;;6.70;4.82;;;24.00;99.90;;;;;;5005616;28;20274;-31
2023/08/19 07:34:59;;;;;;;7.32;4.95;;;24.10;99.90;;;;;;4988764;28;20187;-31
2023/08/19 07:37:26;;;;;;;7.38;4.75;;;24.30;99.90;;;;;;4992618;28;20272;-31
2023/08/19 07:39:55;;;;;;;7.13;5.00;;;24.30;99.90;;;;;;4977531;28;20184;-31
2023/08/19 07:42:21;;;;;;;8.13;5.40;;;24.30;99.90;;;;;;4973737;28;20184;-31
2023/08/19 07:44:47;;;;;;;9.15;5.13;;;24.40;99.90;;;;;;4989784;28;20187;-31
2023/08/19 07:47:15;;;;;;;5.90;4.78;;;24.50;99.90;;;;;;4965912;28;20214;-31
2023/08/19 07:49:40;;;;;;;6.28;4.53;;;24.60;99.90;;;;;;4990975;28;20208;-31
2023/08/19 07:52:13;;;;;;;8.05;5.20;;;24.70;99.90;;;;;;4996786;28;20208;-31
2023/08/19 07:54:40;;;;;;;6.47;4.57;;;24.90;99.90;;;;;;4991213;28;20251;-31
2023/08/19 07:57:06;;;;;;;8.88;4.53;;;24.90;99.90;;;;;;4997725;28;20239;-31
2023/08/19 07:59:32;;;;;;;9.00;4.93;;;25.00;99.90;;;;;;5005665;28;20207;-31
2023/08/19 08:01:57;;;;;;;8.10;4.38;;;25.10;99.90;;;;;;5003270;28;20655;-31
2023/08/19 08:04:24;;;;;;;8.80;5.10;;;25.20;99.90;;;;;;4988375;28;20188;-31
2023/08/19 08:06:50;;;;;;;6.13;4.35;;;25.20;99.90;;;;;;5005591;28;20203;-31
2023/08/19 08:09:16;;;;;;;7.05;5.15;;;25.40;99.90;;;;;;4982535;28;20238;-31
2023/08/19 08:11:45;;;;;;;10.35;4.93;;;25.50;99.90;;;;;;5006365;28;20194;-31
2023/08/19 08:14:12;;;;;;;7.22;4.80;;;25.70;99.90;;;;;;5006758;28;20206;-31
2023/08/19 08:16:38;;;;;;;8.00;4.60;;;25.80;99.90;;;;;;5003255;28;20192;-31
2023/08/19 08:19:05;;;;;;;6.28;4.63;;;25.90;99.90;;;;;;4993311;28;20191;-30
2023/08/19 08:21:34;;;;;;;7.93;4.65;;;26.00;99.90;;;;;;4988045;28;20195;-31
2023/08/19 08:24:04;;;;;;;6.13;4.80;;;26.20;99.90;;;;;;4988082;28;20243;-30
2023/08/19 08:26:31;;;;;;;6.43;4.72;;;26.40;99.90;;;;;;4993962;28;20210;-31
2023/08/19 08:28:58;;;;;;;6.85;5.07;;;26.50;99.90;;;;;;5008426;28;20257;-31
2023/08/19 08:31:23;;;;;;;9.00;4.88;;;26.60;99.90;;;;;;5008225;28;20192;-31
2023/08/19 08:33:50;;;;;;;7.82;4.82;;;26.80;99.90;;;;;;4981099;28;20187;-31
2023/08/19 08:36:15;;;;;;;7.70;5.25;;;26.90;99.90;;;;;;4999980;28;20639;-31
2023/08/19 08:38:46;;;;;;;5.50;5.00;;;27.00;99.90;;;;;;4991628;28;20201;-31
2023/08/19 08:41:15;;;;;;;7.90;5.00;;;27.20;99.90;;;;;;4997905;28;20180;-31
2023/08/19 08:43:43;;;;;;;6.35;4.65;;;27.40;99.90;;;;;;4998773;28;20188;-31
2023/08/19 08:46:10;;;;;;;6.35;4.43;;;27.40;99.90;;;;;;5001790;28;20233;-31
2023/08/19 08:48:39;;;;;;;7.53;4.57;;;27.60;99.90;;;;;;4991378;28;20214;-31
2023/08/19 08:51:09;;;;;;;5.47;4.40;;;27.80;99.90;;;;;;4974063;28;20252;-31
2023/08/19 08:53:41;;;;;;;5.50;4.22;;;28.00;99.90;;;;;;4991636;28;20187;-31
2023/08/19 08:56:13;;;;;;;7.88;4.57;;;28.20;99.90;;;;;;5005897;28;20190;-31
2023/08/19 08:58:42;;;;;;;5.97;3.80;;;28.20;99.90;;;;;;4991817;28;20211;-31
2023/08/19 09:01:11;;;;;;;5.97;3.83;;;28.30;99.90;;;;;;5004036;28;20724;-32
2023/08/19 09:03:45;;;;;;;5.47;4.25;;;28.50;99.90;;;;;;4975890;28;20183;-31
2023/08/19 09:06:17;;;;;;;5.18;4.30;;;28.70;99.90;;;;;;4993163;28;20184;-31
2023/08/19 09:08:51;;;;;;;5.95;3.80;;;28.80;99.90;;;;;;4991004;28;20211;-31
2023/08/19 09:11:25;;;;;;;5.25;3.60;;;28.80;99.90;;;;;;4991118;28;20237;-31
2023/08/19 09:14:37;;;;;;;5.97;3.65;;;28.90;99.90;;;;;;5003523;28;20187;-31
2023/08/19 09:17:05;;;;;;;5.80;3.80;;;29.10;99.90;;;;;;4978545;28;20212;-32
2023/08/19 09:19:32;;;;;;;6.75;3.75;;;29.20;99.90;;;;;;5003150;28;20258;-32
2023/08/19 09:21:58;;;;;;;7.70;3.83;;;29.30;99.90;;;;;;5004481;28;20187;-31
2023/08/19 09:24:23;;;;;;;8.18;4.03;;;29.40;99.90;;;;;;5005005;28;20760;-31
2023/08/19 09:26:59;;;;;;;6.68;3.75;;;29.60;99.90;;;;;;4987536;28;20210;-31
2023/08/19 09:29:24;;;;;;;5.25;3.42;;;29.80;99.90;;;;;;4994690;28;20231;-33
2023/08/19 09:31:57;;;;;;;7.57;3.80;;;29.90;99.90;;;;;;4984632;28;20184;-31
2023/08/19 09:34:22;;;;;;;6.75;4.03;;;29.90;99.90;;;;;;4990881;28;20191;-31
2023/08/19 09:36:52;;;;;;;8.23;3.90;;;30.00;99.90;;;;;;4996028;28;20195;-31
2023/08/19 09:39:19;;;;;;;5.35;4.43;;;30.10;99.90;;;;;;4995799;28;20214;-32
2023/08/19 09:41:45;;;;;;;6.78;4.55;;;30.20;99.90;;;;;;4999431;28;20188;-31
2023/08/19 09:44:13;;;;;;;7.07;4.03;;;30.30;99.90;;;;;;4978164;28;20314;-31
2023/08/19 09:46:46;;;;;;;9.55;4.95;;;30.50;99.90;;;;;;4995486;28;20180;-31
2023/08/19 09:49:23;;;;;;;6.18;4.20;;;30.30;99.90;;;;;;4997310;28;20200;-31
2023/08/19 09:51:59;;;;;;;11.50;4.00;;;30.60;99.90;;;;;;4979731;28;20229;-32
2023/08/19 09:54:27;;;;;;;6.60;4.07;;;30.50;99.90;;;;;;4998956;28;20205;-32
2023/08/19 09:56:56;;;;;;;6.90;4.43;;;30.70;99.90;;;;;;5005053;28;20207;-31
2023/08/19 09:59:27;;;;;;;8.68;6.43;;;31.00;99.90;;;;;;4981244;28;20302;-31
2023/08/19 10:01:54;;;;;;;6.93;4.30;;;31.10;99.90;;;;;;4982773;28;20188;-32
2023/08/19 10:04:26;;;;;;;6.45;4.05;;;31.30;99.90;;;;;;4988773;28;20199;-32
2023/08/19 10:07:01;;;;;;;6.07;3.80;;;31.20;99.90;;;;;;5004262;28;20557;-31
2023/08/19 10:09:39;;;;;;;5.18;4.32;;;31.30;99.90;;;;;;4987689;28;20263;-32
2023/08/19 10:12:11;;;;;;;7.03;4.22;;;31.60;99.90;;;;;;4976002;28;20187;-31
2023/08/19 10:14:41;;;;;;;7.70;4.00;;;31.70;99.90;;;;;;4996527;28;20182;-32
2023/08/19 10:17:07;;;;;;;7.10;4.28;;;31.80;99.90;;;;;;4998700;28;20311;-31
2023/08/19 10:19:48;;;;;;;5.68;4.15;;;31.90;99.90;;;;;;5007158;28;20210;-31
2023/08/19 10:22:18;;;;;;;5.03;4.20;;;31.90;99.90;;;;;;4987242;28;20190;-31
2023/08/19 10:24:47;;;;;;;6.25;4.00;;;31.90;99.90;;;;;;4977957;28;20184;-32
2023/08/19 10:27:17;;;;;;;8.73;3.90;;;32.10;99.90;;;;;;4973429;28;20298;-31
2023/08/19 10:29:48;;;;;;;6.68;4.07;;;32.20;99.90;;;;;;4987098;28;20250;-32
2023/08/19 10:32:34;;;;;;;5.80;4.00;;;32.30;99.90;;;;;;5001983;28;20270;-32
2023/08/19 10:35:09;;;;;;;6.72;4.75;;;32.40;99.90;;;;;;4988969;28;20193;-31
2023/08/19 10:37:39;;;;;;;6.72;4.00;;;32.60;99.90;;;;;;4963266;28;20205;-31
2023/08/19 10:40:14;;;;;;;8.50;4.22;;;32.70;99.90;;;;;;4997571;28;20187;-31
2023/08/19 10:42:52;;;;;;;8.00;4.25;;;32.80;99.90;;;;;;4997102;28;20266;-32
2023/08/19 10:45:19;;;;;;;6.78;4.20;;;33.00;99.90;;;;;;5007195;28;20271;-32
2023/08/19 10:47:45;;;;;;;4.50;4.10;;;32.90;99.90;;;;;;5004299;28;20750;-31
2023/08/19 10:50:11;;;;;;;4.95;3.95;;;33.10;99.90;;;;;;5003523;28;20184;-31
2023/08/19 10:52:56;;;;;;;6.03;4.10;;;33.40;99.90;;;;;;4994587;28;20246;-31
2023/08/19 10:55:22;;;;;;;6.30;3.60;;;33.60;99.90;;;;;;4980783;28;20179;-31
2023/08/19 10:57:48;;;;;;;4.18;3.67;;;33.70;99.90;;;;;;5003923;28;20214;-32
2023/08/19 11:00:14;;;;;;;6.72;3.78;;;33.80;99.90;;;;;;5005419;28;20218;-32
2023/08/19 11:02:40;;;;;;;7.35;3.78;;;33.90;99.90;;;;;;5003067;28;20473;-32
2023/08/19 11:05:07;;;;;;;5.35;4.07;;;34.10;99.90;;;;;;4992700;28;20179;-32
2023/08/19 11:07:33;;;;;;;5.50;3.80;;;34.30;99.90;;;;;;4988730;28;20200;-32
2023/08/19 11:09:59;;;;;;;5.28;3.88;;;34.40;99.90;;;;;;4977111;28;20218;-32
2023/08/19 11:12:29;;;;;;;4.05;3.45;;;34.60;99.90;;;;;;5004409;28;20183;-32
2023/08/19 11:14:56;;;;;;;7.03;3.60;;;34.70;99.90;;;;;;5005407;28;20180;-33
2023/08/19 11:17:31;;;;;;;5.07;3.97;;;34.70;99.90;;;;;;5001284;28;20230;-33
2023/08/19 11:20:05;;;;;;;9.25;3.75;;;34.90;99.90;;;;;;5003485;28;20198;-32
2023/08/19 11:22:45;;;;;;;8.10;3.75;;;34.90;99.90;;;;;;5005644;28;20194;-32
2023/08/19 11:25:19;;;;;;;5.72;3.88;;;34.90;99.90;;;;;;4989771;28;20191;-32
2023/08/19 11:27:48;;;;;;;7.78;3.90;;;35.10;99.90;;;;;;4987732;28;20245;-32
2023/08/19 11:30:18;;;;;;;6.68;3.83;;;35.10;99.90;;;;;;4998079;28;20221;-32
2023/08/19 11:32:47;;;;;;;5.13;3.50;;;35.10;99.90;;;;;;4994157;28;20183;-32
2023/08/19 11:35:13;;;;;;;6.45;3.63;;;35.00;99.90;;;;;;5004464;28;20175;-33
2023/08/19 11:37:44;;;;;;;6.18;3.70;;;34.90;99.90;;;;;;5002964;28;20227;-33
2023/08/19 11:40:13;;;;;;;5.15;3.30;;;34.70;99.90;;;;;;4986899;28;20196;-32
2023/08/19 11:42:39;;;;;;;4.95;3.50;;;34.70;99.90;;;;;;4968918;28;20240;-32
2023/08/19 11:45:10;;;;;;;4.80;3.25;;;34.70;99.90;;;;;;4984170;28;20183;-32
2023/08/19 11:47:36;;;;;;;5.60;3.83;;;34.70;99.90;;;;;;4976396;28;20219;-33
2023/08/19 11:50:06;;;;;;;6.40;3.88;;;34.70;99.90;;;;;;4998986;28;20220;-32
2023/08/19 11:52:33;;;;;;;5.38;3.70;;;34.80;99.90;;;;;;5004815;28;20254;-32
2023/08/19 11:55:06;;;;;;;4.70;3.25;;;34.80;99.90;;;;;;4979311;28;20202;-32
2023/08/19 11:57:38;;;;;;;6.65;3.22;;;34.90;99.90;;;;;;5003406;28;20209;-32
2023/08/19 12:00:05;;;;;;;5.70;3.13;;;34.80;99.90;;;;;;4988925;28;20191;-32
2023/08/19 12:02:38;;;;;;;6.45;3.40;;;34.70;99.90;;;;;;4995769;28;20218;-33
2023/08/19 12:05:05;;;;;;;3.85;3.17;;;34.60;99.90;;;;;;4993239;28;20240;-32
2023/08/19 12:07:30;;;;;;;5.10;3.00;;;34.70;99.90;;;;;;4991580;28;20242;-31
2023/08/19 12:09:58;;;;;;;3.35;3.05;;;34.90;99.90;;;;;;5002069;28;20301;-32
2023/08/19 12:12:25;;;;;;;3.85;2.88;;;35.10;99.90;;;;;;4999212;28;20223;-32
2023/08/19 12:14:53;;;;;;;7.07;3.47;;;35.30;99.90;;;;;;4984569;28;20188;-32
2023/08/19 12:17:19;;;;;;;5.05;3.40;;;35.60;99.90;;;;;;4982381;28;20215;-32
2023/08/19 12:19:47;;;;;;;4.90;3.30;;;35.80;99.90;;;;;;4979603;28;20188;-32
2023/08/19 12:22:19;;;;;;;4.63;3.35;;;36.00;99.90;;;;;;4991087;28;20200;-33
2023/08/19 12:24:50;;;;;;;4.07;3.10;;;36.30;99.90;;;;;;4989756;28;20275;-32
2023/08/19 12:27:19;;;;;;;5.35;3.40;;;36.30;99.90;;;;;;4986015;28;20217;-32
2023/08/19 12:29:57;;;;;;;4.05;3.60;;;36.00;99.00;;;;;;4990010;28;20302;-32
2023/08/19 12:32:29;;;;;;;5.13;3.65;;;35.80;99.00;;;;;;5003763;28;20176;-32
2023/08/19 12:34:58;;;;;;;5.43;3.30;;;35.90;99.60;;;;;;4989713;28;20189;-33
2023/08/19 12:37:27;;;;;;;5.75;3.63;;;36.00;99.90;;;;;;4989089;28;20230;-32
2023/08/19 12:39:59;;;;;;;4.70;3.47;;;36.10;99.90;;;;;;4989944;28;20223;-33
2023/08/19 12:42:31;;;;;;;4.30;3.30;;;36.30;99.70;;;;;;5006051;28;20203;-32
2023/08/19 12:44:57;;;;;;;6.72;3.33;;;36.50;99.30;;;;;;4984947;28;20197;-32
2023/08/19 12:47:24;;;;;;;4.07;3.10;;;36.70;99.90;;;;;;4989301;28;20293;-32
2023/08/19 12:49:50;;;;;;;4.68;3.60;;;36.80;99.80;;;;;;4996012;28;20216;-34
2023/08/19 12:52:18;;;;;;;5.72;3.50;;;36.90;98.90;;;;;;4996219;28;20179;-32
2023/08/19 12:54:45;;;;;;;6.43;3.10;;;37.00;97.90;;;;;;4986788;28;20180;-32